sensor_id;sensor_type;location;lat;lon;timestamp;temperature;humidity
29007;DHT22;16104;48.642;9.008;2023-05-07T01:04:17;16.80;53.70
29007;DHT22;16104;48.642;9.008;2023-05-07T01:09:13;16.80;53.70
29007;DHT22;16104;48.642;9.008;2023-05-07T01:14:09;16.80;53.90
29007;DHT22;16104;48.642;9.008;2023-05-07T02:04:53;16.40;55.10
29007;DHT22;16104;48.642;9.008;2023-05-07T02:09:49;16.30;55.30
29007;DHT22;16104;48.642;9.008;2023-05-07T02:14:44;16.30;55.50
29007;DHT22;16104;48.642;9.008;2023-05-07T03:00:23;15.90;56.20
29007;DHT22;16104;48.642;9.008;2023-05-07T03:05:19;15.80;56.30
29007;DHT22;16104;48.642;9.008;2023-05-07T03:10:14;15.70;56.40
29007;DHT22;16104;48.642;9.008;2023-05-07T03:15:10;15.60;56.50
29007;DHT22;16104;48.642;9.008;2023-05-07T03:20:08;15.60;56.80
29007;DHT22;16104;48.642;9.008;2023-05-07T03:25:05;15.50;56.90
29007;DHT22;16104;48.642;9.008;2023-05-07T03:30:01;15.40;57.10
29007;DHT22;16104;48.642;9.008;2023-05-07T03:34:56;15.40;57.10
29007;DHT22;16104;48.642;9.008;2023-05-07T03:39:52;15.40;57.40
29007;DHT22;16104;48.642;9.008;2023-05-07T03:44:47;15.30;57.40
29007;DHT22;16104;48.642;9.008;2023-05-07T03:49:43;15.30;57.50
29007;DHT22;16104;48.642;9.008;2023-05-07T03:54:38;15.20;57.70
29007;DHT22;16104;48.642;9.008;2023-05-07T03:59:34;15.20;57.90
29007;DHT22;16104;48.642;9.008;2023-05-07T04:04:29;15.10;57.90
29007;DHT22;16104;48.642;9.008;2023-05-07T04:09:28;15.10;58.10
29007;DHT22;16104;48.642;9.008;2023-05-07T04:14:23;15.00;58.20
29007;DHT22;16104;48.642;9.008;2023-05-07T04:19:18;14.90;58.20
29007;DHT22;16104;48.642;9.008;2023-05-07T04:24:14;14.90;58.70
29007;DHT22;16104;48.642;9.008;2023-05-07T04:29:10;14.90;58.90
29007;DHT22;16104;48.642;9.008;2023-05-07T04:34:05;14.90;59.20
29007;DHT22;16104;48.642;9.008;2023-05-07T04:39:02;14.80;59.20
29007;DHT22;16104;48.642;9.008;2023-05-07T04:43:58;14.90;60.20
29007;DHT22;16104;48.642;9.008;2023-05-07T04:48:54;14.90;59.30
29007;DHT22;16104;48.642;9.008;2023-05-07T04:53:49;14.80;59.40
29007;DHT22;16104;48.642;9.008;2023-05-07T04:58:45;14.80;59.60
29007;DHT22;16104;48.642;9.008;2023-05-07T05:03:41;14.90;59.60
29007;DHT22;16104;48.642;9.008;2023-05-07T05:08:37;14.90;59.70
29007;DHT22;16104;48.642;9.008;2023-05-07T05:13:32;14.90;60.00
29007;DHT22;16104;48.642;9.008;2023-05-07T05:18:28;15.00;60.20
29007;DHT22;16104;48.642;9.008;2023-05-07T05:23:23;15.10;60.00
29007;DHT22;16104;48.642;9.008;2023-05-07T05:28:19;15.20;60.50
29007;DHT22;16104;48.642;9.008;2023-05-07T05:33:14;15.30;60.30
29007;DHT22;16104;48.642;9.008;2023-05-07T05:38:10;15.30;60.30
29007;DHT22;16104;48.642;9.008;2023-05-07T05:43:06;15.50;60.60
29007;DHT22;16104;48.642;9.008;2023-05-07T05:48:01;15.60;60.70
29007;DHT22;16104;48.642;9.008;2023-05-07T05:52:57;15.80;60.60
29007;DHT22;16104;48.642;9.008;2023-05-07T05:57:53;16.10;60.30
29007;DHT22;16104;48.642;9.008;2023-05-07T06:02:48;16.30;60.10
29007;DHT22;16104;48.642;9.008;2023-05-07T06:07:44;16.50;60.00
29007;DHT22;16104;48.642;9.008;2023-05-07T06:12:39;16.70;59.60
29007;DHT22;16104;48.642;9.008;2023-05-07T06:17:35;17.00;59.40
29007;DHT22;16104;48.642;9.008;2023-05-07T06:22:30;17.20;59.10
29007;DHT22;16104;48.642;9.008;2023-05-07T06:27:26;17.30;59.10
29007;DHT22;16104;48.642;9.008;2023-05-07T06:32:23;17.50;59.00
29007;DHT22;16104;48.642;9.008;2023-05-07T06:37:18;17.70;58.90
29007;DHT22;16104;48.642;9.008;2023-05-07T06:42:14;17.90;58.70
29007;DHT22;16104;48.642;9.008;2023-05-07T06:47:10;18.10;58.40
29007;DHT22;16104;48.642;9.008;2023-05-07T06:52:05;18.30;58.40
29007;DHT22;16104;48.642;9.008;2023-05-07T06:57:01;18.50;58.10
29007;DHT22;16104;48.642;9.008;2023-05-07T07:01:56;18.70;57.90
29007;DHT22;16104;48.642;9.008;2023-05-07T07:06:53;18.80;58.10
29007;DHT22;16104;48.642;9.008;2023-05-07T07:11:49;19.00;57.90
29007;DHT22;16104;48.642;9.008;2023-05-07T07:16:44;19.30;57.80
29007;DHT22;16104;48.642;9.008;2023-05-07T07:21:42;19.50;57.50
29007;DHT22;16104;48.642;9.008;2023-05-07T07:26:37;19.80;57.40
29007;DHT22;16104;48.642;9.008;2023-05-07T07:31:35;20.10;57.20
29007;DHT22;16104;48.642;9.008;2023-05-07T07:36:30;20.30;56.80
29007;DHT22;16104;48.642;9.008;2023-05-07T07:41:26;20.50;56.10
29007;DHT22;16104;48.642;9.008;2023-05-07T07:46:21;20.80;55.70
29007;DHT22;16104;48.642;9.008;2023-05-07T07:51:17;21.00;54.80
29007;DHT22;16104;48.642;9.008;2023-05-07T07:56:12;21.20;54.70
29007;DHT22;16104;48.642;9.008;2023-05-07T08:01:08;21.40;54.50
29007;DHT22;16104;48.642;9.008;2023-05-07T08:06:03;21.60;54.40
29007;DHT22;16104;48.642;9.008;2023-05-07T08:10:59;21.80;53.40
29007;DHT22;16104;48.642;9.008;2023-05-07T08:15:54;22.00;53.50
29007;DHT22;16104;48.642;9.008;2023-05-07T08:20:50;22.30;52.90
29007;DHT22;16104;48.642;9.008;2023-05-07T08:25:46;22.60;52.50
29007;DHT22;16104;48.642;9.008;2023-05-07T08:30:41;22.80;51.80
29007;DHT22;16104;48.642;9.008;2023-05-07T08:35:37;23.00;51.70
29007;DHT22;16104;48.642;9.008;2023-05-07T08:40:38;23.20;51.30
29007;DHT22;16104;48.642;9.008;2023-05-07T08:45:34;23.40;50.00
29007;DHT22;16104;48.642;9.008;2023-05-07T08:50:30;23.60;50.40
29007;DHT22;16104;48.642;9.008;2023-05-07T08:55:26;23.90;50.20
29007;DHT22;16104;48.642;9.008;2023-05-07T09:00:23;24.10;49.80
29007;DHT22;16104;48.642;9.008;2023-05-07T09:05:19;24.40;49.60
29007;DHT22;16104;48.642;9.008;2023-05-07T09:10:15;24.50;49.00
29007;DHT22;16104;48.642;9.008;2023-05-07T09:15:11;24.70;49.60
29007;DHT22;16104;48.642;9.008;2023-05-07T09:20:07;24.90;48.40
29007;DHT22;16104;48.642;9.008;2023-05-07T09:25:04;25.20;48.20
29007;DHT22;16104;48.642;9.008;2023-05-07T09:30:03;25.40;47.70
29007;DHT22;16104;48.642;9.008;2023-05-07T09:34:59;25.60;48.00
29007;DHT22;16104;48.642;9.008;2023-05-07T09:39:54;25.80;47.30
29007;DHT22;16104;48.642;9.008;2023-05-07T09:44:50;26.10;46.60
29007;DHT22;16104;48.642;9.008;2023-05-07T09:49:47;26.20;46.30
29007;DHT22;16104;48.642;9.008;2023-05-07T09:54:43;26.40;46.30
29007;DHT22;16104;48.642;9.008;2023-05-07T09:59:42;26.50;45.60
29007;DHT22;16104;48.642;9.008;2023-05-07T10:04:38;26.70;45.30
29007;DHT22;16104;48.642;9.008;2023-05-07T10:09:35;27.00;44.70
29007;DHT22;16104;48.642;9.008;2023-05-07T10:14:33;27.10;44.40
29007;DHT22;16104;48.642;9.008;2023-05-07T10:19:29;27.20;45.00
29007;DHT22;16104;48.642;9.008;2023-05-07T10:24:29;27.30;44.20
29007;DHT22;16104;48.642;9.008;2023-05-07T10:29:48;27.40;43.50
29007;DHT22;16104;48.642;9.008;2023-05-07T10:34:48;27.50;42.70
29007;DHT22;16104;48.642;9.008;2023-05-07T10:39:46;27.60;43.70
29007;DHT22;16104;48.642;9.008;2023-05-07T10:44:42;27.70;42.80
29007;DHT22;16104;48.642;9.008;2023-05-07T10:54:39;28.10;41.60
29007;DHT22;16104;48.642;9.008;2023-05-07T10:59:35;28.20;42.70
29007;DHT22;16104;48.642;9.008;2023-05-07T11:04:37;28.30;42.10
29007;DHT22;16104;48.642;9.008;2023-05-07T11:14:48;28.40;40.90
29007;DHT22;16104;48.642;9.008;2023-05-07T11:19:49;28.50;41.40
29007;DHT22;16104;48.642;9.008;2023-05-07T11:24:46;28.50;40.50
29007;DHT22;16104;48.642;9.008;2023-05-07T11:29:46;28.50;40.10
29007;DHT22;16104;48.642;9.008;2023-05-07T11:34:42;28.50;40.00
29007;DHT22;16104;48.642;9.008;2023-05-07T11:39:39;28.40;40.80
29007;DHT22;16104;48.642;9.008;2023-05-07T11:44:42;28.40;40.60
29007;DHT22;16104;48.642;9.008;2023-05-07T11:49:38;28.20;39.50
29007;DHT22;16104;48.642;9.008;2023-05-07T11:54:37;28.00;39.40
29007;DHT22;16104;48.642;9.008;2023-05-07T11:59:39;27.80;39.90
29007;DHT22;16104;48.642;9.008;2023-05-07T12:04:44;27.60;41.60
29007;DHT22;16104;48.642;9.008;2023-05-07T12:09:40;27.30;41.60
29007;DHT22;16104;48.642;9.008;2023-05-07T12:14:39;27.00;42.30
29007;DHT22;16104;48.642;9.008;2023-05-07T12:19:35;26.50;42.30
29007;DHT22;16104;48.642;9.008;2023-05-07T12:24:57;26.20;42.80
29007;DHT22;16104;48.642;9.008;2023-05-07T12:29:53;25.70;44.30
29007;DHT22;16104;48.642;9.008;2023-05-07T12:34:52;25.30;44.30
29007;DHT22;16104;48.642;9.008;2023-05-07T12:39:48;24.90;45.60
29007;DHT22;16104;48.642;9.008;2023-05-07T12:44:46;24.50;46.00
29007;DHT22;16104;48.642;9.008;2023-05-07T12:49:42;24.10;47.00
29007;DHT22;16104;48.642;9.008;2023-05-07T12:54:38;23.80;47.80
29007;DHT22;16104;48.642;9.008;2023-05-07T12:59:39;23.40;47.70
29007;DHT22;16104;48.642;9.008;2023-05-07T13:04:35;23.10;48.00
29007;DHT22;16104;48.642;9.008;2023-05-07T13:09:31;22.60;47.80
29007;DHT22;16104;48.642;9.008;2023-05-07T13:14:26;22.20;48.40
29007;DHT22;16104;48.642;9.008;2023-05-07T13:19:22;21.80;49.30
29007;DHT22;16104;48.642;9.008;2023-05-07T13:24:17;21.50;49.70
29007;DHT22;16104;48.642;9.008;2023-05-07T13:29:13;21.30;50.60
29007;DHT22;16104;48.642;9.008;2023-05-07T13:34:09;21.00;51.00
29007;DHT22;16104;48.642;9.008;2023-05-07T13:39:04;20.80;52.00
29007;DHT22;16104;48.642;9.008;2023-05-07T13:44:01;20.60;52.90
29007;DHT22;16104;48.642;9.008;2023-05-07T13:48:56;20.40;53.50
29007;DHT22;16104;48.642;9.008;2023-05-07T13:53:52;20.20;53.70
29007;DHT22;16104;48.642;9.008;2023-05-07T13:58:47;20.00;53.90
29007;DHT22;16104;48.642;9.008;2023-05-07T14:03:43;19.90;54.40
29007;DHT22;16104;48.642;9.008;2023-05-07T14:08:40;19.70;55.00
29007;DHT22;16104;48.642;9.008;2023-05-07T14:13:35;19.70;56.00
29007;DHT22;16104;48.642;9.008;2023-05-07T14:18:31;19.60;56.30
29007;DHT22;16104;48.642;9.008;2023-05-07T14:23:28;19.50;56.60
29007;DHT22;16104;48.642;9.008;2023-05-07T14:28:24;19.40;57.10
29007;DHT22;16104;48.642;9.008;2023-05-07T14:33:20;19.30;57.20
29007;DHT22;16104;48.642;9.008;2023-05-07T14:38:15;19.20;57.60
29007;DHT22;16104;48.642;9.008;2023-05-07T14:43:11;19.20;58.00
29007;DHT22;16104;48.642;9.008;2023-05-07T14:48:06;19.10;58.50
29007;DHT22;16104;48.642;9.008;2023-05-07T14:53:02;19.10;58.70
29007;DHT22;16104;48.642;9.008;2023-05-07T14:57:57;19.00;58.90
29007;DHT22;16104;48.642;9.008;2023-05-07T15:02:53;19.00;59.10
29007;DHT22;16104;48.642;9.008;2023-05-07T15:07:50;19.00;59.70
29007;DHT22;16104;48.642;9.008;2023-05-07T15:12:45;18.90;59.80
29007;DHT22;16104;48.642;9.008;2023-05-07T15:17:41;18.90;60.40
29007;DHT22;16104;48.642;9.008;2023-05-07T15:22:37;19.00;60.30
29007;DHT22;16104;48.642;9.008;2023-05-07T15:27:32;19.00;61.00
29007;DHT22;16104;48.642;9.008;2023-05-07T15:32:28;19.00;60.60
29007;DHT22;16104;48.642;9.008;2023-05-07T15:37:23;19.10;60.30
29007;DHT22;16104;48.642;9.008;2023-05-07T15:42:19;19.20;60.60
29007;DHT22;16104;48.642;9.008;2023-05-07T15:47:15;19.30;60.70
29007;DHT22;16104;48.642;9.008;2023-05-07T15:52:10;19.40;61.00
29007;DHT22;16104;48.642;9.008;2023-05-07T15:57:06;19.50;61.10
29007;DHT22;16104;48.642;9.008;2023-05-07T16:02:02;19.60;61.20
29007;DHT22;16104;48.642;9.008;2023-05-07T16:06:58;19.70;60.70
29007;DHT22;16104;48.642;9.008;2023-05-07T16:11:53;19.80;60.70
29007;DHT22;16104;48.642;9.008;2023-05-07T16:16:49;19.80;60.50
29007;DHT22;16104;48.642;9.008;2023-05-07T16:21:44;19.90;60.40
29007;DHT22;16104;48.642;9.008;2023-05-07T16:26:40;19.90;60.00
29007;DHT22;16104;48.642;9.008;2023-05-07T16:31:35;19.90;59.80
29007;DHT22;16104;48.642;9.008;2023-05-07T16:36:31;19.90;60.00
29007;DHT22;16104;48.642;9.008;2023-05-07T16:41:27;19.90;59.80
29007;DHT22;16104;48.642;9.008;2023-05-07T16:46:23;19.90;60.00
29007;DHT22;16104;48.642;9.008;2023-05-07T16:51:18;19.90;60.00
29007;DHT22;16104;48.642;9.008;2023-05-07T16:56:14;19.90;59.90
29007;DHT22;16104;48.642;9.008;2023-05-07T17:01:10;19.90;60.30
29007;DHT22;16104;48.642;9.008;2023-05-07T17:06:06;19.90;60.40
29007;DHT22;16104;48.642;9.008;2023-05-07T17:11:07;19.90;60.60
29007;DHT22;16104;48.642;9.008;2023-05-07T17:16:03;19.80;60.60
29007;DHT22;16104;48.642;9.008;2023-05-07T17:20:59;19.80;60.70
29007;DHT22;16104;48.642;9.008;2023-05-07T17:25:55;19.80;60.60
29007;DHT22;16104;48.642;9.008;2023-05-07T17:30:50;19.80;60.90
29007;DHT22;16104;48.642;9.008;2023-05-07T17:35:46;19.70;60.90
29007;DHT22;16104;48.642;9.008;2023-05-07T17:40:42;19.70;60.70
29007;DHT22;16104;48.642;9.008;2023-05-07T17:45:37;19.70;61.20
29007;DHT22;16104;48.642;9.008;2023-05-07T17:50:33;19.70;61.20
29007;DHT22;16104;48.642;9.008;2023-05-07T17:55:29;19.70;61.40
29007;DHT22;16104;48.642;9.008;2023-05-07T18:00:24;19.60;61.60
29007;DHT22;16104;48.642;9.008;2023-05-07T18:05:20;19.60;61.90
29007;DHT22;16104;48.642;9.008;2023-05-07T18:10:16;19.60;62.10
29007;DHT22;16104;48.642;9.008;2023-05-07T18:15:11;19.60;62.20
29007;DHT22;16104;48.642;9.008;2023-05-07T18:20:07;19.60;62.30
29007;DHT22;16104;48.642;9.008;2023-05-07T18:25:06;19.60;62.50
29007;DHT22;16104;48.642;9.008;2023-05-07T18:30:02;19.50;62.60
29007;DHT22;16104;48.642;9.008;2023-05-07T18:34:57;19.50;63.00
29007;DHT22;16104;48.642;9.008;2023-05-07T18:39:53;19.40;62.90
29007;DHT22;16104;48.642;9.008;2023-05-07T18:44:49;19.40;63.10
29007;DHT22;16104;48.642;9.008;2023-05-07T18:49:44;19.30;63.40
29007;DHT22;16104;48.642;9.008;2023-05-07T18:54:40;19.30;63.30
29007;DHT22;16104;48.642;9.008;2023-05-07T18:59:35;19.30;63.50
29007;DHT22;16104;48.642;9.008;2023-05-07T19:04:31;19.20;63.60
29007;DHT22;16104;48.642;9.008;2023-05-07T19:09:26;19.20;64.10
29007;DHT22;16104;48.642;9.008;2023-05-07T19:14:22;19.10;64.00
29007;DHT22;16104;48.642;9.008;2023-05-07T19:19:17;19.10;64.20
29007;DHT22;16104;48.642;9.008;2023-05-07T19:24:13;19.10;64.20
29007;DHT22;16104;48.642;9.008;2023-05-07T19:29:09;19.00;64.30
29007;DHT22;16104;48.642;9.008;2023-05-07T19:34:05;19.00;64.40
29007;DHT22;16104;48.642;9.008;2023-05-07T19:39:00;18.90;64.30
29007;DHT22;16104;48.642;9.008;2023-05-07T19:43:56;18.90;64.80
29007;DHT22;16104;48.642;9.008;2023-05-07T19:48:52;18.90;65.10
29007;DHT22;16104;48.642;9.008;2023-05-07T19:53:47;18.90;65.00
29007;DHT22;16104;48.642;9.008;2023-05-07T19:58:43;18.80;65.10
29007;DHT22;16104;48.642;9.008;2023-05-07T20:03:38;18.80;65.10
29007;DHT22;16104;48.642;9.008;2023-05-07T20:08:34;18.80;65.10
29007;DHT22;16104;48.642;9.008;2023-05-07T20:13:29;18.80;65.10
29007;DHT22;16104;48.642;9.008;2023-05-07T20:18:26;18.80;65.30
29007;DHT22;16104;48.642;9.008;2023-05-07T20:23:22;18.70;65.30
29007;DHT22;16104;48.642;9.008;2023-05-07T20:28:17;18.70;65.20
29007;DHT22;16104;48.642;9.008;2023-05-07T20:33:13;18.70;65.30
29007;DHT22;16104;48.642;9.008;2023-05-07T20:38:09;18.70;65.30
29007;DHT22;16104;48.642;9.008;2023-05-07T20:43:05;18.60;65.40
29007;DHT22;16104;48.642;9.008;2023-05-07T20:48:00;18.60;65.60
29007;DHT22;16104;48.642;9.008;2023-05-07T20:52:56;18.60;65.60
29007;DHT22;16104;48.642;9.008;2023-05-07T20:57:51;18.50;65.70
29007;DHT22;16104;48.642;9.008;2023-05-07T21:02:47;18.60;65.80
29007;DHT22;16104;48.642;9.008;2023-05-07T21:07:42;18.50;65.90
29007;DHT22;16104;48.642;9.008;2023-05-07T21:12:38;18.60;65.90
29007;DHT22;16104;48.642;9.008;2023-05-07T21:17:34;18.50;66.20
29007;DHT22;16104;48.642;9.008;2023-05-07T21:22:29;18.50;66.20
29007;DHT22;16104;48.642;9.008;2023-05-07T21:27:27;18.50;66.40
29007;DHT22;16104;48.642;9.008;2023-05-07T21:32:22;18.50;66.90
29007;DHT22;16104;48.642;9.008;2023-05-07T21:37:18;18.40;66.90
29007;DHT22;16104;48.642;9.008;2023-05-07T21:42:13;18.40;66.90
29007;DHT22;16104;48.642;9.008;2023-05-07T21:47:09;18.40;66.90
29007;DHT22;16104;48.642;9.008;2023-05-07T21:52:04;18.40;67.10
29007;DHT22;16104;48.642;9.008;2023-05-07T21:57:04;18.40;67.10
29007;DHT22;16104;48.642;9.008;2023-05-07T22:02:00;18.30;67.20
29007;DHT22;16104;48.642;9.008;2023-05-07T22:06:56;18.30;67.30
29007;DHT22;16104;48.642;9.008;2023-05-07T22:11:51;18.30;67.20
29007;DHT22;16104;48.642;9.008;2023-05-07T22:16:47;18.30;67.40
29007;DHT22;16104;48.642;9.008;2023-05-07T22:21:42;18.30;67.50
29007;DHT22;16104;48.642;9.008;2023-05-07T22:26:38;18.30;67.60
29007;DHT22;16104;48.642;9.008;2023-05-07T22:31:33;18.30;67.60
29007;DHT22;16104;48.642;9.008;2023-05-07T22:36:29;18.30;67.60
29007;DHT22;16104;48.642;9.008;2023-05-07T22:41:24;18.20;67.60
29007;DHT22;16104;48.642;9.008;2023-05-07T22:46:20;18.20;67.60
29007;DHT22;16104;48.642;9.008;2023-05-07T22:51:16;18.20;67.70
29007;DHT22;16104;48.642;9.008;2023-05-07T22:56:11;18.20;67.60
29007;DHT22;16104;48.642;9.008;2023-05-07T23:01:11;18.20;67.50
29007;DHT22;16104;48.642;9.008;2023-05-07T23:06:07;18.10;67.80
29007;DHT22;16104;48.642;9.008;2023-05-07T23:11:03;18.20;67.60
29007;DHT22;16104;48.642;9.008;2023-05-07T23:15:59;18.20;67.70
29007;DHT22;16104;48.642;9.008;2023-05-07T23:20:54;18.10;67.50
29007;DHT22;16104;48.642;9.008;2023-05-07T23:25:51;18.10;67.80
29007;DHT22;16104;48.642;9.008;2023-05-07T23:30:47;18.10;68.00
29007;DHT22;16104;48.642;9.008;2023-05-07T23:35:42;18.10;68.00
29007;DHT22;16104;48.642;9.008;2023-05-07T23:40:38;18.00;68.20
29007;DHT22;16104;48.642;9.008;2023-05-07T23:45:33;18.00;68.40
29007;DHT22;16104;48.642;9.008;2023-05-07T23:50:29;18.10;68.50
29007;DHT22;16104;48.642;9.008;2023-05-07T23:55:24;18.00;68.50
